Time;durP1;ratioP1;P1;durP2;ratioP2;P2;SDS_P1;SDS_P2;PMS_P1;PMS_P2;Temp;Humidity;BMP_temperature;BMP_pressure;BME280_temperature;BME280_humidity;BME280_pressure;Samples;Min_cycle;Max_cycle;Signal;HPM_P1;HPM_P2
2023/05/15 05:00:27;;;;;;;5.60;5.20;;;13.50;97.20;;;;;;1735293;28;20187;-72
2023/05/15 05:01:17;;;;;;;6.18;5.68;;;13.50;97.20;;;;;;1734878;28;20200;-72
2023/05/15 05:02:09;;;;;;;5.87;5.37;;;13.50;97.20;;;;;;1735313;28;20199;-72
2023/05/15 05:03:00;;;;;;;5.97;5.47;;;13.50;97.20;;;;;;1734927;28;20697;-72
2023/05/15 05:03:52;;;;;;;6.10;5.60;;;13.50;97.20;;;;;;1735357;28;20285;-72
2023/05/15 05:04:42;;;;;;;6.97;5.40;;;13.50;97.20;;;;;;1732023;28;20200;-72
2023/05/15 05:05:34;;;;;;;5.90;5.40;;;13.50;97.20;;;;;;1728569;28;20220;-72
2023/05/15 05:06:25;;;;;;;6.00;5.43;;;13.50;97.20;;;;;;1728580;28;20211;-72
2023/05/15 05:07:17;;;;;;;5.30;4.90;;;13.50;97.20;;;;;;1728494;28;20203;-73
2023/05/15 05:08:08;;;;;;;5.28;4.85;;;13.50;97.20;;;;;;1728439;28;20208;-72
2023/05/15 05:08:59;;;;;;;5.70;5.13;;;13.50;97.20;;;;;;1733313;28;20200;-72
2023/05/15 05:09:50;;;;;;;5.78;5.28;;;13.50;97.20;;;;;;1735000;28;20222;-71
2023/05/15 05:10:42;;;;;;;5.82;5.25;;;13.60;97.20;;;;;;1735248;28;20269;-72
2023/05/15 05:11:33;;;;;;;6.05;5.55;;;13.60;97.20;;;;;;1733230;28;20575;-72
2023/05/15 05:12:24;;;;;;;5.43;5.03;;;13.60;97.20;;;;;;1732919;28;20238;-72
2023/05/15 05:13:15;;;;;;;6.78;5.97;;;13.60;97.20;;;;;;1728158;28;20207;-72
2023/05/15 05:14:07;;;;;;;6.30;5.80;;;13.60;97.20;;;;;;1730952;28;20204;-72
2023/05/15 05:14:58;;;;;;;5.80;5.30;;;13.60;97.20;;;;;;1735189;28;20661;-71
2023/05/15 05:15:51;;;;;;;5.80;5.30;;;13.70;97.20;;;;;;1735340;28;20564;-72
2023/05/15 05:16:44;;;;;;;6.32;5.70;;;13.70;97.20;;;;;;1735354;28;20208;-72
2023/05/15 05:17:35;;;;;;;6.80;5.72;;;13.70;97.20;;;;;;1735219;28;20282;-72
2023/05/15 05:18:26;;;;;;;5.60;5.20;;;13.70;97.20;;;;;;1735262;28;20206;-72
2023/05/15 05:19:18;;;;;;;5.50;5.10;;;13.70;97.20;;;;;;1733294;28;20202;-72
2023/05/15 05:20:10;;;;;;;5.90;5.30;;;13.70;97.20;;;;;;1731184;28;20200;-72
2023/05/15 05:21:02;;;;;;;6.00;5.45;;;13.70;97.20;;;;;;1728431;28;20209;-71
2023/05/15 05:21:53;;;;;;;6.40;5.90;;;13.70;97.20;;;;;;1735090;28;20207;-71
2023/05/15 05:22:44;;;;;;;5.93;5.43;;;13.70;97.20;;;;;;1735227;28;20200;-71
2023/05/15 05:23:35;;;;;;;5.82;5.43;;;13.80;97.20;;;;;;1735163;28;20204;-71
2023/05/15 05:24:27;;;;;;;6.93;6.33;;;13.70;97.20;;;;;;1735238;28;20196;-71
2023/05/15 05:25:18;;;;;;;6.22;5.72;;;13.70;97.20;;;;;;1733069;28;20658;-71
2023/05/15 05:26:10;;;;;;;6.43;5.90;;;13.70;97.20;;;;;;1728425;28;20639;-72
2023/05/15 05:27:00;;;;;;;6.22;5.72;;;13.70;97.20;;;;;;1729499;28;20446;-71
2023/05/15 05:27:52;;;;;;;6.73;5.93;;;13.70;97.20;;;;;;1728382;28;20284;-71
2023/05/15 05:28:43;;;;;;;6.70;6.15;;;13.80;97.20;;;;;;1728425;28;20380;-71
2023/05/15 05:29:35;;;;;;;5.63;5.23;;;13.80;97.20;;;;;;1727951;28;20205;-71
2023/05/15 05:30:25;;;;;;;6.70;6.07;;;13.80;97.20;;;;;;1728064;28;20208;-71
2023/05/15 05:31:20;;;;;;;6.70;6.10;;;13.80;97.20;;;;;;1729898;28;20199;-71
2023/05/15 05:32:11;;;;;;;6.20;5.68;;;13.70;97.20;;;;;;1735070;28;20478;-71
2023/05/15 05:33:03;;;;;;;5.50;5.10;;;13.80;97.20;;;;;;1735215;28;20200;-70
2023/05/15 05:33:54;;;;;;;6.55;5.95;;;13.80;97.20;;;;;;1735074;28;20204;-71
2023/05/15 05:34:45;;;;;;;6.90;6.27;;;13.80;97.20;;;;;;1730913;28;20197;-71
2023/05/15 05:35:36;;;;;;;6.03;5.53;;;13.80;97.20;;;;;;1728269;28;20439;-72
2023/05/15 05:36:28;;;;;;;6.03;5.43;;;13.80;97.20;;;;;;1728439;28;20203;-72
2023/05/15 05:37:19;;;;;;;6.60;6.10;;;13.90;97.20;;;;;;1728842;28;20654;-71
2023/05/15 05:38:10;;;;;;;5.83;5.43;;;13.90;97.20;;;;;;1735092;28;20762;-72
2023/05/15 05:39:01;;;;;;;5.47;5.07;;;13.90;97.20;;;;;;1735159;28;20662;-71
2023/05/15 05:39:55;;;;;;;6.22;5.72;;;13.90;97.20;;;;;;1733102;28;20224;-71
2023/05/15 05:40:45;;;;;;;5.90;5.40;;;14.00;97.20;;;;;;1728160;28;20220;-71
2023/05/15 05:41:37;;;;;;;6.20;5.70;;;14.00;97.20;;;;;;1728170;28;20202;-71
2023/05/15 05:42:28;;;;;;;6.50;5.90;;;14.00;97.20;;;;;;1728285;28;20200;-71
2023/05/15 05:43:20;;;;;;;5.80;5.40;;;14.00;97.20;;;;;;1728216;28;20220;-72
2023/05/15 05:44:11;;;;;;;6.13;5.65;;;14.10;97.20;;;;;;1728270;28;20212;-71
2023/05/15 05:45:02;;;;;;;6.23;5.63;;;14.10;97.20;;;;;;1727886;28;20196;-72
2023/05/15 05:45:53;;;;;;;6.75;6.20;;;14.10;97.20;;;;;;1727788;28;20212;-72
2023/05/15 05:46:46;;;;;;;6.00;5.50;;;14.10;97.20;;;;;;1728297;28;20203;-72
2023/05/15 05:47:37;;;;;;;5.95;5.45;;;14.20;97.20;;;;;;1728174;28;20203;-72
2023/05/15 05:48:29;;;;;;;5.60;5.20;;;14.20;97.20;;;;;;1728249;28;20204;-72
2023/05/15 05:49:20;;;;;;;6.50;5.90;;;14.20;97.20;;;;;;1728253;28;20579;-72
2023/05/15 05:50:12;;;;;;;5.83;5.33;;;14.20;97.20;;;;;;1727946;28;20647;-72
2023/05/15 05:51:03;;;;;;;5.90;5.40;;;14.30;97.20;;;;;;1728131;28;20207;-72
2023/05/15 05:51:54;;;;;;;5.72;5.22;;;14.30;97.20;;;;;;1728153;28;20192;-72
2023/05/15 05:52:45;;;;;;;6.35;5.85;;;14.30;97.20;;;;;;1728104;28;20277;-72
2023/05/15 05:53:37;;;;;;;8.97;6.00;;;14.30;97.20;;;;;;1728198;28;20197;-72
2023/05/15 05:54:27;;;;;;;6.18;5.68;;;14.30;97.20;;;;;;1728152;28;20585;-72
2023/05/15 05:55:19;;;;;;;5.50;5.10;;;14.30;97.20;;;;;;1728037;28;20560;-72
2023/05/15 05:56:10;;;;;;;6.63;5.43;;;14.40;97.20;;;;;;1728127;28;20231;-72
2023/05/15 05:57:02;;;;;;;5.90;5.40;;;14.40;97.20;;;;;;1728147;28;20200;-72
2023/05/15 05:57:53;;;;;;;5.55;5.05;;;14.40;97.20;;;;;;1728232;28;20207;-72
2023/05/15 05:58:45;;;;;;;7.72;5.90;;;14.50;97.20;;;;;;1728182;28;20208;-72
2023/05/15 05:59:36;;;;;;;6.28;5.78;;;14.50;97.20;;;;;;1727691;28;20196;-72
2023/05/15 06:00:28;;;;;;;6.50;5.82;;;14.50;97.20;;;;;;1727993;28;20228;-72
2023/05/15 06:01:19;;;;;;;6.50;5.90;;;14.50;97.20;;;;;;1728048;28;20201;-72
2023/05/15 06:02:12;;;;;;;6.35;5.85;;;14.60;97.20;;;;;;1728216;28;20239;-72
2023/05/15 06:03:03;;;;;;;5.95;5.55;;;14.60;97.20;;;;;;1728071;28;20208;-72
2023/05/15 06:03:56;;;;;;;5.55;5.15;;;14.60;97.20;;;;;;1728183;28;20201;-72
2023/05/15 06:04:46;;;;;;;6.90;5.78;;;14.60;97.20;;;;;;1728931;28;20204;-72
2023/05/15 06:05:38;;;;;;;6.23;5.73;;;14.60;97.20;;;;;;1728169;28;20209;-72
2023/05/15 06:06:29;;;;;;;7.22;6.53;;;14.60;97.20;;;;;;1730222;28;20212;-72
2023/05/15 06:07:21;;;;;;;6.75;6.15;;;14.60;97.20;;;;;;1734910;28;20262;-72
2023/05/15 06:08:12;;;;;;;6.90;6.28;;;14.60;97.20;;;;;;1734953;28;20725;-72
2023/05/15 06:09:04;;;;;;;6.20;5.70;;;14.70;97.20;;;;;;1734957;28;20609;-72
2023/05/15 06:09:55;;;;;;;6.30;5.80;;;14.70;97.20;;;;;;1734540;28;20210;-72
2023/05/15 06:10:47;;;;;;;6.10;5.60;;;14.70;97.20;;;;;;1734834;28;20353;-72
2023/05/15 06:11:37;;;;;;;6.25;5.75;;;14.70;97.20;;;;;;1734771;28;20438;-72
2023/05/15 06:12:29;;;;;;;5.80;5.30;;;14.70;97.20;;;;;;1734833;28;20322;-72
2023/05/15 06:13:20;;;;;;;6.55;5.97;;;14.80;97.20;;;;;;1734870;28;20203;-73
2023/05/15 06:14:12;;;;;;;6.40;5.90;;;14.80;97.20;;;;;;1734891;28;20666;-72
2023/05/15 06:15:03;;;;;;;6.75;6.25;;;14.80;97.20;;;;;;1734890;28;20211;-72
2023/05/15 06:15:55;;;;;;;6.00;5.47;;;14.80;97.20;;;;;;1731207;28;20203;-72
2023/05/15 06:16:45;;;;;;;6.30;5.70;;;14.80;97.20;;;;;;1733864;28;20211;-72
2023/05/15 06:17:39;;;;;;;6.17;5.67;;;14.80;97.20;;;;;;1737662;28;20199;-72
2023/05/15 06:18:30;;;;;;;5.97;5.47;;;14.80;97.20;;;;;;1734656;28;20290;-72
2023/05/15 06:19:21;;;;;;;6.53;6.03;;;14.80;97.20;;;;;;1736206;28;20208;-72
2023/05/15 06:20:13;;;;;;;5.75;5.35;;;14.80;97.20;;;;;;1737004;28;20443;-72
2023/05/15 06:21:05;;;;;;;6.18;5.63;;;14.70;97.20;;;;;;1741445;28;20619;-72
2023/05/15 06:21:55;;;;;;;6.38;5.78;;;14.70;97.20;;;;;;1741262;28;20210;-72
2023/05/15 06:22:48;;;;;;;6.67;6.03;;;14.70;97.20;;;;;;1741486;28;20233;-72
2023/05/15 06:23:39;;;;;;;6.43;5.93;;;14.70;97.20;;;;;;1741496;28;20564;-72
2023/05/15 06:24:30;;;;;;;6.50;6.00;;;14.80;97.20;;;;;;1735700;28;20192;-72
2023/05/15 06:25:21;;;;;;;6.28;5.70;;;14.80;97.20;;;;;;1733994;28;20591;-72
2023/05/15 06:26:13;;;;;;;6.90;6.40;;;14.80;97.20;;;;;;1734219;28;20259;-72
2023/05/15 06:27:04;;;;;;;6.90;6.40;;;14.80;97.20;;;;;;1734381;28;20943;-72
2023/05/15 06:27:56;;;;;;;6.25;5.75;;;14.80;97.20;;;;;;1734646;28;20792;-72
2023/05/15 06:28:46;;;;;;;6.35;5.75;;;14.90;97.20;;;;;;1734788;28;20211;-72
2023/05/15 06:29:38;;;;;;;7.37;6.77;;;14.90;97.20;;;;;;1734047;28;20674;-72
2023/05/15 06:30:29;;;;;;;6.72;6.22;;;14.90;97.20;;;;;;1734471;28;20200;-71
2023/05/15 06:31:21;;;;;;;6.23;5.73;;;14.90;97.20;;;;;;1734447;28;20546;-72
2023/05/15 06:32:11;;;;;;;6.70;6.00;;;14.90;97.20;;;;;;1734672;28;20203;-72
2023/05/15 06:33:05;;;;;;;6.50;5.90;;;14.90;97.20;;;;;;1734556;28;20227;-72
2023/05/15 06:33:55;;;;;;;7.05;5.88;;;14.90;97.20;;;;;;1734601;28;20208;-72
2023/05/15 06:34:47;;;;;;;7.17;6.57;;;15.00;97.20;;;;;;1734603;28;20300;-72
2023/05/15 06:35:38;;;;;;;7.10;6.47;;;15.00;97.20;;;;;;1734551;28;20257;-72
2023/05/15 06:36:30;;;;;;;6.90;6.30;;;15.10;97.20;;;;;;1734066;28;20219;-72
2023/05/15 06:37:20;;;;;;;6.93;6.22;;;15.10;97.20;;;;;;1734596;28;20568;-73
2023/05/15 06:38:12;;;;;;;6.80;6.20;;;15.10;97.20;;;;;;1734700;28;20283;-73
2023/05/15 06:39:04;;;;;;;7.13;6.53;;;15.20;97.20;;;;;;1734455;28;20200;-75
2023/05/15 06:39:58;;;;;;;6.75;6.15;;;15.20;97.20;;;;;;1733791;28;20204;-72
2023/05/15 06:40:49;;;;;;;6.78;6.28;;;15.30;97.20;;;;;;1734534;28;20224;-72
2023/05/15 06:41:41;;;;;;;6.80;6.27;;;15.30;97.20;;;;;;1734390;28;20709;-75
2023/05/15 06:42:32;;;;;;;6.28;5.78;;;15.30;97.20;;;;;;1734480;28;20447;-75
2023/05/15 06:43:23;;;;;;;7.50;6.90;;;15.40;97.20;;;;;;1734548;28;20199;-72
2023/05/15 06:44:14;;;;;;;6.88;6.30;;;15.40;97.20;;;;;;1734510;28;20206;-72
2023/05/15 06:45:07;;;;;;;6.53;6.03;;;15.50;97.20;;;;;;1734643;28;20230;-73
2023/05/15 06:45:58;;;;;;;6.93;6.32;;;15.50;97.20;;;;;;1734217;28;20204;-72
2023/05/15 06:46:50;;;;;;;6.47;5.87;;;15.60;97.20;;;;;;1727839;28;20197;-73
2023/05/15 06:47:41;;;;;;;6.63;6.03;;;15.70;97.20;;;;;;1727650;28;20842;-72
2023/05/15 06:48:35;;;;;;;6.37;5.87;;;15.70;97.20;;;;;;1727765;28;20299;-74
2023/05/15 06:49:27;;;;;;;6.30;5.80;;;15.80;97.20;;;;;;1727796;28;20201;-73
2023/05/15 06:50:19;;;;;;;7.97;6.50;;;15.80;97.20;;;;;;1727254;28;20278;-73
2023/05/15 06:51:09;;;;;;;7.57;6.90;;;15.90;97.20;;;;;;1728742;28;20219;-73
2023/05/15 06:52:01;;;;;;;8.03;7.23;;;16.00;97.20;;;;;;1733078;28;20222;-73
2023/05/15 06:52:53;;;;;;;7.22;6.63;;;16.10;97.20;;;;;;1727583;28;20248;-74
2023/05/15 06:53:45;;;;;;;8.00;7.20;;;16.10;97.20;;;;;;1730443;28;20204;-73
2023/05/15 06:54:36;;;;;;;7.38;6.78;;;16.10;97.20;;;;;;1734414;28;20233;-74
2023/05/15 06:55:28;;;;;;;7.78;6.82;;;16.20;97.20;;;;;;1730051;28;20193;-73
2023/05/15 06:56:18;;;;;;;7.72;7.03;;;16.20;97.20;;;;;;1727670;28;20200;-74
2023/05/15 06:57:10;;;;;;;7.77;7.00;;;16.30;97.20;;;;;;1727731;28;20207;-73
2023/05/15 06:58:01;;;;;;;8.30;7.60;;;16.30;97.20;;;;;;1727703;28;20211;-74
2023/05/15 06:58:53;;;;;;;7.67;7.07;;;16.30;97.20;;;;;;1727756;28;20203;-73
2023/05/15 06:59:43;;;;;;;7.65;6.85;;;16.30;97.20;;;;;;1732983;28;20216;-73
2023/05/15 07:00:35;;;;;;;7.30;6.63;;;16.40;97.20;;;;;;1734447;28;20240;-73
2023/05/15 07:01:26;;;;;;;9.77;6.53;;;16.40;97.20;;;;;;1734354;28;20196;-73
2023/05/15 07:02:18;;;;;;;7.10;6.60;;;16.50;97.20;;;;;;1734601;28;20200;-73
2023/05/15 07:03:08;;;;;;;7.32;6.68;;;16.50;97.20;;;;;;1731046;28;20192;-73
2023/05/15 07:04:02;;;;;;;6.60;6.00;;;16.60;97.20;;;;;;1734149;28;20195;-73
2023/05/15 07:04:53;;;;;;;7.63;5.90;;;16.70;97.20;;;;;;1734102;28;20649;-73
2023/05/15 07:05:45;;;;;;;8.37;6.23;;;16.80;97.20;;;;;;1734205;28;20669;-73
2023/05/15 07:06:36;;;;;;;7.70;6.60;;;16.90;97.20;;;;;;1734267;28;20204;-73
2023/05/15 07:07:28;;;;;;;6.97;6.25;;;17.00;97.20;;;;;;1734409;28;20200;-73
2023/05/15 07:08:19;;;;;;;6.60;6.00;;;17.10;97.20;;;;;;1734227;28;20200;-73
2023/05/15 07:09:10;;;;;;;6.37;5.77;;;17.20;97.20;;;;;;1734420;28;20228;-73
2023/05/15 07:10:01;;;;;;;6.75;6.15;;;17.30;97.20;;;;;;1733375;28;20234;-73
2023/05/15 07:10:53;;;;;;;5.93;5.43;;;17.40;97.20;;;;;;1734164;28;20220;-73
2023/05/15 07:11:44;;;;;;;7.25;6.55;;;17.40;97.20;;;;;;1734296;28;20200;-73
2023/05/15 07:12:35;;;;;;;5.97;5.37;;;17.50;97.20;;;;;;1733862;28;20200;-73
2023/05/15 07:13:26;;;;;;;6.15;5.65;;;17.50;97.20;;;;;;1734214;28;20848;-74
2023/05/15 07:14:18;;;;;;;6.47;5.97;;;17.60;97.20;;;;;;1734348;28;20218;-73
2023/05/15 07:15:09;;;;;;;6.22;5.72;;;17.60;97.20;;;;;;1734397;28;20199;-74
2023/05/15 07:16:01;;;;;;;5.28;4.80;;;17.60;97.20;;;;;;1734332;28;20200;-74
2023/05/15 07:16:52;;;;;;;7.50;6.20;;;17.60;97.20;;;;;;1734386;28;20204;-74
2023/05/15 07:17:43;;;;;;;5.47;4.97;;;17.70;97.20;;;;;;1734334;28;20638;-74
2023/05/15 07:18:34;;;;;;;6.00;5.30;;;17.80;97.20;;;;;;1734326;28;20227;-74
2023/05/15 07:19:27;;;;;;;5.60;5.15;;;17.80;97.20;;;;;;1734404;28;20574;-74
2023/05/15 07:20:18;;;;;;;5.90;5.40;;;17.90;97.20;;;;;;1733858;28;20813;-74
2023/05/15 07:21:10;;;;;;;8.30;5.70;;;18.00;97.20;;;;;;1734209;28;20569;-74
2023/05/15 07:22:01;;;;;;;5.60;5.10;;;18.10;97.20;;;;;;1734293;28;20211;-74
2023/05/15 07:22:52;;;;;;;5.50;5.10;;;18.10;97.20;;;;;;1734028;28;20203;-74
2023/05/15 07:23:43;;;;;;;6.20;5.30;;;18.30;97.20;;;;;;1734239;28;20235;-74
2023/05/15 07:24:35;;;;;;;5.43;4.93;;;18.40;97.20;;;;;;1734233;28;20204;-74
2023/05/15 07:25:26;;;;;;;6.10;5.50;;;18.50;97.20;;;;;;1734290;28;20200;-74
2023/05/15 07:26:17;;;;;;;5.90;5.40;;;18.50;97.20;;;;;;1734257;28;20235;-74
2023/05/15 07:27:08;;;;;;;6.07;5.47;;;18.60;97.20;;;;;;1734174;28;20450;-74
2023/05/15 07:28:00;;;;;;;5.87;5.27;;;18.60;97.20;;;;;;1734324;28;20210;-79
2023/05/15 07:28:51;;;;;;;6.05;5.45;;;18.70;97.20;;;;;;1735590;28;20200;-82
2023/05/15 07:29:42;;;;;;;8.50;5.40;;;18.70;97.20;;;;;;1734809;28;20204;-81
2023/05/15 07:30:33;;;;;;;4.70;4.30;;;18.70;97.20;;;;;;1734563;28;20227;-72
2023/05/15 07:31:25;;;;;;;4.93;4.43;;;18.80;97.20;;;;;;1734200;28;20283;-73
2023/05/15 07:32:15;;;;;;;5.45;4.95;;;18.80;97.20;;;;;;1733968;28;20821;-73
2023/05/15 07:33:07;;;;;;;4.60;4.30;;;18.90;97.20;;;;;;1733599;28;20676;-73
2023/05/15 07:33:58;;;;;;;5.13;4.68;;;18.90;97.20;;;;;;1734133;28;20212;-72
2023/05/15 07:34:52;;;;;;;4.73;4.30;;;19.00;97.20;;;;;;1728397;28;20232;-73
2023/05/15 07:35:42;;;;;;;7.20;4.65;;;19.10;97.20;;;;;;1727407;28;20204;-73
2023/05/15 07:36:34;;;;;;;5.23;4.83;;;19.20;97.20;;;;;;1727080;28;20200;-72
2023/05/15 07:37:25;;;;;;;5.75;4.40;;;19.20;97.20;;;;;;1726829;28;20203;-72
2023/05/15 07:38:17;;;;;;;4.77;4.47;;;19.30;97.20;;;;;;1727299;28;20658;-73
2023/05/15 07:39:07;;;;;;;4.75;4.20;;;19.40;97.20;;;;;;1727372;28;20246;-73
2023/05/15 07:39:59;;;;;;;5.33;4.80;;;19.50;97.20;;;;;;1726661;28;20254;-73
2023/05/15 07:40:50;;;;;;;5.13;3.90;;;19.50;97.20;;;;;;1727404;28;20476;-72
2023/05/15 07:41:42;;;;;;;5.25;4.25;;;19.60;97.20;;;;;;1726878;28;20206;-73
2023/05/15 07:42:33;;;;;;;4.80;4.40;;;19.60;97.20;;;;;;1726724;28;20208;-73
2023/05/15 07:43:24;;;;;;;5.07;4.67;;;19.60;97.20;;;;;;1727395;28;20189;-72
2023/05/15 07:44:15;;;;;;;6.00;4.22;;;19.70;97.20;;;;;;1727365;28;20564;-72
2023/05/15 07:45:08;;;;;;;4.67;4.27;;;19.70;97.20;;;;;;1727371;28;20246;-72
2023/05/15 07:45:58;;;;;;;4.38;3.97;;;19.70;97.20;;;;;;1731070;28;20207;-73
2023/05/15 07:46:50;;;;;;;3.93;3.70;;;19.80;97.20;;;;;;1734016;28;20219;-73
2023/05/15 07:47:44;;;;;;;4.38;4.07;;;19.80;97.20;;;;;;1734126;28;20211;-73
2023/05/15 07:48:36;;;;;;;5.70;4.75;;;19.90;97.20;;;;;;1734067;28;20199;-73
2023/05/15 07:49:26;;;;;;;26.27;5.32;;;19.90;97.20;;;;;;1733875;28;20207;-72
2023/05/15 07:50:20;;;;;;;24.53;5.53;;;20.00;97.20;;;;;;1733601;28;20206;-73
2023/05/15 07:51:10;;;;;;;7.20;4.10;;;20.00;97.20;;;;;;1733875;28;20294;-73
2023/05/15 07:52:02;;;;;;;17.20;5.87;;;20.10;97.20;;;;;;1733836;28;20283;-73
2023/05/15 07:52:53;;;;;;;11.48;5.50;;;20.10;97.20;;;;;;1733866;28;20222;-73
2023/05/15 07:53:45;;;;;;;13.87;5.50;;;20.20;97.20;;;;;;1734084;28;20225;-72
2023/05/15 07:54:35;;;;;;;8.38;4.38;;;20.30;97.20;;;;;;1734140;28;20208;-73
2023/05/15 07:55:27;;;;;;;9.47;5.60;;;20.30;97.20;;;;;;1734719;28;20670;-73
2023/05/15 07:56:18;;;;;;;5.75;4.25;;;20.40;97.20;;;;;;1734050;28;20200;-73
2023/05/15 07:57:10;;;;;;;6.47;4.73;;;20.50;97.20;;;;;;1734205;28;20200;-73
2023/05/15 07:58:00;;;;;;;7.63;4.63;;;20.50;97.20;;;;;;1733871;28;20552;-74
2023/05/15 07:58:52;;;;;;;9.57;5.20;;;20.50;97.20;;;;;;1733876;28;20262;-75
2023/05/15 07:59:43;;;;;;;12.75;6.10;;;20.60;97.20;;;;;;1733317;28;20548;-74
2023/05/15 08:00:35;;;;;;;10.53;4.63;;;20.70;97.20;;;;;;1733863;28;20215;-74
2023/05/15 08:01:26;;;;;;;8.75;4.80;;;20.70;97.20;;;;;;1733940;28;20214;-74
2023/05/15 08:02:17;;;;;;;13.77;5.73;;;20.80;97.20;;;;;;1734091;28;20196;-73
2023/05/15 08:03:09;;;;;;;6.22;4.45;;;20.90;97.20;;;;;;1734115;28;20203;-73
2023/05/15 08:04:00;;;;;;;7.10;5.22;;;21.00;97.20;;;;;;1733215;28;20200;-73
2023/05/15 08:04:51;;;;;;;8.13;5.80;;;21.10;97.20;;;;;;1730803;28;20230;-73
2023/05/15 08:05:44;;;;;;;4.67;4.17;;;21.20;97.20;;;;;;1734098;28;20211;-73
2023/05/15 08:06:37;;;;;;;6.32;4.05;;;21.30;97.20;;;;;;1734108;28;20196;-73
2023/05/15 08:07:30;;;;;;;4.97;4.68;;;21.40;97.20;;;;;;1734080;28;20196;-73
2023/05/15 08:08:21;;;;;;;5.80;4.53;;;21.50;97.20;;;;;;1733650;28;20688;-73
2023/05/15 08:09:13;;;;;;;5.43;4.40;;;21.60;97.20;;;;;;1734181;28;20863;-73
2023/05/15 08:10:05;;;;;;;5.13;4.15;;;21.70;97.20;;;;;;1733329;28;20208;-73
2023/05/15 08:10:56;;;;;;;7.63;4.20;;;21.80;97.20;;;;;;1733936;28;20219;-73
2023/05/15 08:11:47;;;;;;;12.43;4.80;;;21.90;97.20;;;;;;1734046;28;20680;-73
2023/05/15 08:12:44;;;;;;;4.77;4.30;;;22.00;97.20;;;;;;1734081;28;20715;-73
2023/05/15 08:13:35;;;;;;;5.10;4.25;;;22.00;97.20;;;;;;1733980;28;20250;-73
2023/05/15 08:14:27;;;;;;;4.20;3.80;;;22.00;97.20;;;;;;1733793;28;20196;-73
2023/05/15 08:15:18;;;;;;;3.80;3.45;;;22.00;97.20;;;;;;1733968;28;20195;-73
2023/05/15 08:16:09;;;;;;;4.33;3.93;;;22.00;97.20;;;;;;1734071;28;20204;-73
2023/05/15 08:17:00;;;;;;;4.60;4.20;;;22.00;97.20;;;;;;1733930;28;20226;-73
2023/05/15 08:17:52;;;;;;;5.50;4.90;;;22.10;97.20;;;;;;1734045;28;21013;-73
2023/05/15 08:18:42;;;;;;;5.07;4.20;;;22.10;97.20;;;;;;1733977;28;20200;-73
2023/05/15 08:19:34;;;;;;;4.03;3.40;;;22.10;97.20;;;;;;1733543;28;20198;-73
2023/05/15 08:20:25;;;;;;;6.63;4.30;;;22.10;97.20;;;;;;1733906;28;20204;-72
2023/05/15 08:21:18;;;;;;;5.40;3.90;;;22.10;97.20;;;;;;1733962;28;20192;-73
2023/05/15 08:22:09;;;;;;;4.00;3.60;;;22.00;97.20;;;;;;1733974;28;20204;-72
2023/05/15 08:23:00;;;;;;;5.30;4.20;;;22.00;97.20;;;;;;1733951;28;20291;-73
2023/05/15 08:23:51;;;;;;;3.92;3.63;;;22.00;97.20;;;;;;1733902;28;20456;-73
2023/05/15 08:24:43;;;;;;;4.40;4.00;;;22.00;97.20;;;;;;1733862;28;20210;-73
2023/05/15 08:25:34;;;;;;;4.07;3.67;;;22.00;97.20;;;;;;1733998;28;20218;-73
2023/05/15 08:26:26;;;;;;;7.07;3.90;;;22.00;97.20;;;;;;1734021;28;20197;-73
2023/05/15 08:27:16;;;;;;;16.00;4.63;;;21.90;97.20;;;;;;1734051;28;20199;-73
2023/05/15 08:28:09;;;;;;;7.60;3.40;;;21.90;97.20;;;;;;1734073;28;20219;-73
2023/05/15 08:29:00;;;;;;;15.98;5.55;;;21.90;97.20;;;;;;1733956;28;20204;-73
2023/05/15 08:29:53;;;;;;;62.20;9.50;;;21.90;97.20;;;;;;1733278;28;20199;-74
2023/05/15 08:30:44;;;;;;;180.10;15.60;;;21.90;97.20;;;;;;1733801;28;20284;-73
2023/05/15 08:31:36;;;;;;;24.40;5.60;;;22.00;97.20;;;;;;1733822;28;20881;-73
2023/05/15 08:32:26;;;;;;;12.60;4.35;;;22.00;97.20;;;;;;1734093;28;20441;-73
2023/05/15 08:33:18;;;;;;;37.33;6.63;;;22.10;97.20;;;;;;1733885;28;20275;-73
2023/05/15 08:34:09;;;;;;;17.05;4.57;;;22.20;97.20;;;;;;1733720;28;20207;-73
2023/05/15 08:35:01;;;;;;;68.03;9.32;;;22.30;97.20;;;;;;1733914;28;20204;-73
2023/05/15 08:35:52;;;;;;;59.65;8.82;;;22.40;97.20;;;;;;1734031;28;20210;-73
2023/05/15 08:36:45;;;;;;;27.73;5.90;;;22.60;97.20;;;;;;1733925;28;20665;-73
2023/05/15 08:37:36;;;;;;;31.63;6.88;;;22.70;97.20;;;;;;1733925;28;20208;-73
2023/05/15 08:38:27;;;;;;;49.10;7.67;;;22.80;97.20;;;;;;1734046;28;20204;-73
2023/05/15 08:39:18;;;;;;;128.95;12.80;;;23.00;97.20;;;;;;1733733;28;20450;-73
2023/05/15 08:40:11;;;;;;;61.87;9.57;;;23.10;97.20;;;;;;1732634;28;20204;-73
2023/05/15 08:41:09;;;;;;;37.95;6.53;;;23.20;97.20;;;;;;1733928;28;20257;-74
2023/05/15 08:42:08;;;;;;;76.03;9.25;;;23.30;97.20;;;;;;1733897;28;20207;-73
2023/05/15 08:43:02;;;;;;;33.22;7.13;;;23.40;97.20;;;;;;1733922;28;20682;-73
2023/05/15 08:43:55;;;;;;;43.33;8.07;;;23.50;97.20;;;;;;1733935;28;20203;-73
2023/05/15 08:44:46;;;;;;;46.05;8.07;;;23.60;97.20;;;;;;1733706;28;20199;-73
2023/05/15 08:45:38;;;;;;;24.98;6.40;;;23.60;97.20;;;;;;1733921;28;20200;-73
2023/05/15 08:46:30;;;;;;;18.08;6.65;;;23.70;97.20;;;;;;1733993;28;20196;-73
2023/05/15 08:47:22;;;;;;;25.38;4.97;;;23.80;97.20;;;;;;1733986;28;20280;-73
2023/05/15 08:48:15;;;;;;;24.92;6.43;;;23.80;97.20;;;;;;1733986;28;20232;-73
2023/05/15 08:49:11;;;;;;;18.75;6.05;;;23.90;97.20;;;;;;1734046;28;20253;-73
2023/05/15 08:50:06;;;;;;;36.20;6.05;;;24.00;97.20;;;;;;1733249;28;20207;-73
2023/05/15 08:51:00;;;;;;;4.88;4.45;;;24.10;97.20;;;;;;1733820;28;20732;-73
2023/05/15 08:51:52;;;;;;;4.65;3.80;;;24.20;97.20;;;;;;1733856;28;20204;-73
2023/05/15 08:52:46;;;;;;;16.20;4.93;;;24.20;97.20;;;;;;1733943;28;20204;-73
2023/05/15 08:53:37;;;;;;;25.40;5.72;;;24.20;97.20;;;;;;1734014;28;20223;-73
2023/05/15 08:54:29;;;;;;;29.60;6.93;;;24.30;97.20;;;;;;1733727;28;20192;-73
2023/05/15 08:55:20;;;;;;;90.68;10.43;;;24.30;97.20;;;;;;1733788;28;20454;-73
2023/05/15 08:56:12;;;;;;;22.40;7.13;;;24.30;97.20;;;;;;1733922;28;20200;-72
2023/05/15 08:57:04;;;;;;;111.05;11.20;;;24.40;97.20;;;;;;1733987;28;20207;-72
2023/05/15 08:57:56;;;;;;;137.73;14.40;;;24.40;97.20;;;;;;1733838;28;20200;-73
2023/05/15 08:58:47;;;;;;;115.28;14.25;;;24.50;97.20;;;;;;1733864;28;20666;-73
2023/05/15 08:59:39;;;;;;;69.95;8.35;;;24.50;97.20;;;;;;1733075;28;20192;-73
2023/05/15 09:00:31;;;;;;;74.32;9.48;;;24.60;97.20;;;;;;1733857;28;20287;-73
2023/05/15 09:01:23;;;;;;;78.80;8.35;;;24.70;97.20;;;;;;1733711;28;20203;-73
2023/05/15 09:02:15;;;;;;;70.70;9.73;;;24.80;97.20;;;;;;1733910;28;20215;-72
2023/05/15 09:03:06;;;;;;;89.93;10.63;;;24.90;97.20;;;;;;1733874;28;20302;-73
2023/05/15 09:03:57;;;;;;;46.42;8.50;;;24.80;97.20;;;;;;1735440;28;20200;-73
2023/05/15 09:04:49;;;;;;;73.93;10.10;;;24.80;97.20;;;;;;1733506;28;20200;-73
2023/05/15 09:05:40;;;;;;;91.28;10.60;;;24.70;97.20;;;;;;1733767;28;20212;-73
2023/05/15 09:06:34;;;;;;;32.85;6.30;;;24.60;97.20;;;;;;1733973;28;20208;-73
2023/05/15 09:07:27;;;;;;;30.60;5.28;;;24.50;97.20;;;;;;1733993;28;20564;-72
2023/05/15 09:08:20;;;;;;;56.08;8.18;;;24.40;97.20;;;;;;1733923;28;20204;-72
2023/05/15 09:09:12;;;;;;;51.67;7.95;;;24.30;97.20;;;;;;1733999;28;20208;-73
2023/05/15 09:10:05;;;;;;;36.40;6.78;;;24.40;97.20;;;;;;1733190;28;20234;-73
2023/05/15 09:10:57;;;;;;;25.70;5.82;;;24.40;97.20;;;;;;1733830;28;20728;-73
2023/05/15 09:11:49;;;;;;;65.78;9.35;;;24.50;97.20;;;;;;1733779;28;20261;-73
2023/05/15 09:12:42;;;;;;;170.50;14.50;;;24.60;97.20;;;;;;1733890;28;20223;-73
2023/05/15 09:13:34;;;;;;;132.57;13.30;;;24.70;97.20;;;;;;1733821;28;20196;-72
2023/05/15 09:14:24;;;;;;;149.15;12.55;;;24.80;97.20;;;;;;1733428;28;20692;-72
2023/05/15 09:15:20;;;;;;;105.70;12.00;;;25.00;97.20;;;;;;1733630;28;20560;-72
2023/05/15 09:16:11;;;;;;;16.02;5.32;;;25.10;97.20;;;;;;1733920;28;20213;-72
2023/05/15 09:17:03;;;;;;;12.00;5.47;;;25.10;97.20;;;;;;1733905;28;20202;-72
2023/05/15 09:17:54;;;;;;;14.80;5.15;;;25.20;97.20;;;;;;1733855;28;20212;-72
2023/05/15 09:18:48;;;;;;;34.70;6.97;;;25.30;97.20;;;;;;1733884;28;20669;-72
2023/05/15 09:19:39;;;;;;;8.00;4.40;;;25.40;97.20;;;;;;1733016;28;20207;-72
2023/05/15 09:20:32;;;;;;;29.40;6.17;;;25.50;97.20;;;;;;1733985;28;20200;-72
2023/05/15 09:21:24;;;;;;;21.38;4.93;;;25.50;97.20;;;;;;1735026;28;20525;-72
2023/05/15 09:22:19;;;;;;;7.88;4.55;;;25.60;97.20;;;;;;1735145;28;20207;-72
2023/05/15 09:23:25;;;;;;;17.02;4.38;;;25.60;97.20;;;;;;1735126;28;20200;-71
2023/05/15 09:24:18;;;;;;;15.77;4.75;;;25.60;97.20;;;;;;1734869;28;20784;-72
2023/05/15 09:25:10;;;;;;;20.15;5.40;;;25.60;97.20;;;;;;1735115;28;20202;-72
2023/05/15 09:26:01;;;;;;;18.20;5.18;;;25.50;97.20;;;;;;1734948;28;20762;-72
2023/05/15 09:27:03;;;;;;;15.53;5.00;;;25.40;97.20;;;;;;1735071;28;20681;-72
2023/05/15 09:27:54;;;;;;;6.60;3.80;;;25.30;97.20;;;;;;1735101;28;20458;-72